Latest Weather Observations for Telfer

IDW60801

Issued at 8:23 am WST Monday 26 August 2019 (issued every 10 minutes, with the page automatically refreshed every 10 minutes)

About weather observations | Map of weather stations | Latest weather observations for WA | Other Formats
Station Details ID: 013030 Name: TELFER AERO Lat: -21.71 Lon: 122.23 Height: 291.9 m
Data from the previous 72 hours. | See also: Recent months at Telfer
Date/Time
WST
Temp
°C
App
Temp
°C
Dew
Point
°C
Rel
Hum
%
Delta-T
°C
Wind Press
QNH
hPa
Press
MSL
hPa
Rain since
9am
mm
Dir  Spd
km/h
Gust
km/h
Spd
kts
Gust
kts
26/08:00am 21.2 15.6 -3.3 19 10.4 E 17 24 9 13 1016.5 1015.6 0.0
26/07:30am 18.2 12.8 -4.5 21 9.1 ESE 15 20 8 11 1016.4 1015.5 0.0
26/07:00am 17.1 10.9 -4.8 22 8.7 SE 19 26 10 14 1016.3 1015.4 0.0
26/06:30am 14.9 9.4 -5.5 24 7.8 SE 15 20 8 11 1015.9 1014.9 0.0
26/06:00am 14.6 8.7 -5.7 24 7.7 SE 17 20 9 11 1015.4 1014.4 0.0
26/05:30am 16.1 10.2 -5.6 22 8.4 SE 17 22 9 12 1015.1 1014.1 0.0
26/05:00am 15.4 10.3 -5.6 23 8.0 SE 13 15 7 8 1014.6 1013.6 0.0
26/04:30am 15.8 10.3 -5.8 22 8.2 SE 15 17 8 9 1014.5 1013.5 0.0
26/04:00am 15.8 10.3 -5.8 22 8.2 SE 15 17 8 9 1014.3 1013.3 0.0
26/03:30am 16.2 10.3 -6.1 21 8.5 SE 17 17 9 9 1014.1 1013.1 0.0
26/03:00am 16.3 10.4 -6.0 21 8.5 SE 17 19 9 10 1014.1 1013.1 0.0
26/02:30am 16.7 10.8 -5.7 21 8.7 SE 17 19 9 10 1014.2 1013.2 0.0
26/02:00am 17.2 11.3 -5.9 20 8.9 SE 17 19 9 10 1014.3 1013.3 0.0
26/01:30am 17.3 11.4 -5.8 20 9.0 SE 17 19 9 10 1014.4 1013.4 0.0
26/01:00am 16.9 11.3 -6.2 20 8.8 SE 15 17 8 9 1014.5 1013.5 0.0
26/12:30am 18.2 12.3 -5.8 19 9.4 SE 17 17 9 9 1014.8 1013.8 0.0
26/12:00am 18.9 13.0 -5.9 18 9.8 SE 17 26 9 14 1014.9 1013.9 0.0
 
Date/Time
WST
Temp
°C
App
Temp
°C
Dew
Point
°C
Rel
Hum
%
Delta-T
°C
Wind Press
QNH
hPa
Press
MSL
hPa
Rain since
9am
mm
Dir  Spd
km/h
Gust
km/h
Spd
kts
Gust
kts
25/11:30pm 19.1 13.2 -5.7 18 9.8 SE 17 17 9 9 1015.1 1014.1 0.0
25/11:00pm 19.5 13.9 -6.2 17 10.1 SE 15 17 8 9 1015.4 1014.4 0.0
25/10:30pm 19.8 14.2 -5.9 17 10.2 SE 15 17 8 9 1015.5 1014.5 0.0
25/10:00pm 20.7 15.1 -6.8 15 10.8 SE 15 17 8 9 1015.6 1014.6 0.0
25/09:30pm 21.0 15.4 -6.6 15 11.0 SE 15 17 8 9 1015.7 1014.7 0.0
25/09:00pm 21.5 15.9 -6.2 15 11.1 SE 15 17 8 9 1015.8 1014.8 0.0
25/08:30pm 21.7 16.5 -6.0 15 11.2 SE 13 15 7 8 1015.8 1014.8 0.0
25/08:00pm 22.5 17.3 -6.3 14 11.7 SE 13 17 7 9 1015.7 1014.7 0.0
25/07:30pm 23.2 18.3 -6.7 13 12.1 SE 11 13 6 7 1015.3 1014.3 0.0
25/07:00pm 23.8 19.0 -6.2 13 12.3 ESE 11 13 6 7 1015.1 1014.1 0.0
25/06:30pm 25.1 20.3 -6.3 12 13.0 SE 11 13 6 7 1014.9 1013.9 0.0
25/06:00pm 26.6 21.4 -6.2 11 13.8 E 13 15 7 8 1014.5 1013.5 0.0
25/05:30pm 29.4 24.2 -6.7 9 15.5 E 13 19 7 10 1014.2 1013.2 0.0
25/05:00pm 30.6 24.7 -5.8 9 16.0 E 17 24 9 13 1014.0 1013.0 0.0
25/04:30pm 30.8 24.9 -5.7 9 16.1 E 17 22 9 12 1013.8 1012.8 0.0
25/04:00pm 31.2 25.9 -6.9 8 16.5 NE 13 20 7 11 1013.7 1012.7 0.0
25/03:30pm 31.6 27.1 -6.6 8 16.7 NE 9 17 5 9 1013.8 1012.8 0.0
25/03:00pm 30.9 26.8 -7.1 8 16.4 ESE 7 20 4 11 1013.7 1012.7 0.0
25/02:30pm 31.2 25.9 -6.9 8 16.5 E 13 24 7 13 1014.0 1013.0 0.0
25/02:00pm 31.5 25.5 -6.7 8 16.7 ENE 17 26 9 14 1014.4 1013.4 0.0
25/01:30pm 31.5 25.1 -6.7 8 16.7 E 19 30 10 16 1014.9 1013.9 0.0
25/01:00pm 31.0 24.5 -5.5 9 16.2 E 20 33 11 18 1015.4 1014.4 0.0
25/12:30pm 31.0 24.5 -5.5 9 16.2 ENE 20 33 11 18 1016.0 1015.0 0.0
25/12:00pm 29.9 22.2 -6.4 9 15.7 E 26 39 14 21 1016.5 1015.6 0.0
25/11:30am 29.0 21.7 -3.2 12 14.6 E 26 37 14 20 1017.2 1016.2 0.0
25/11:00am 28.2 21.3 -2.8 13 14.1 E 24 33 13 18 1017.8 1016.8 0.0
25/10:30am 26.7 19.5 -2.1 15 13.1 E 26 35 14 19 1018.3 1017.3 0.0
25/10:00am 25.4 18.0 -0.6 18 12.0 ESE 28 37 15 20 1018.6 1017.6 0.0
25/09:30am 24.8 17.5 0.3 20 11.5 ESE 28 35 15 19 1018.8 1017.8 0.0
25/09:00am 22.5 14.5 0.4 23 10.2 ESE 32 43 17 23 1019.0 1018.0 0.0
25/08:30am 20.9 12.9 0.2 25 9.4 ESE 32 41 17 22 1019.0 1018.0 0.0
25/08:00am 19.2 12.3 0.3 28 8.5 ESE 26 35 14 19 1018.9 1017.9 0.0
25/07:30am 17.2 11.0 -0.1 31 7.6 SE 22 30 12 16 1018.7 1017.7 0.0
25/07:00am 15.8 10.0 0.0 34 6.8 SE 20 28 11 15 1018.5 1017.5 0.0
25/06:30am 14.8 8.9 -0.5 35 6.5 SE 20 24 11 13 1018.1 1017.1 0.0
25/06:00am 15.0 8.8 -0.3 35 6.5 SE 22 28 12 15 1017.8 1016.8 0.0
25/05:30am 14.3 8.3 -1.3 34 6.5 SE 20 24 11 13 1017.5 1016.5 0.0
25/05:00am 16.1 9.7 -1.5 30 7.4 SE 22 28 12 15 1017.4 1016.4 0.0
25/04:30am 16.3 9.9 -1.7 29 7.5 SE 22 26 12 14 1017.2 1016.2 0.0
25/04:00am 15.9 10.3 -2.6 28 7.6 SE 17 22 9 12 1016.9 1015.9 0.0
25/03:30am 15.8 10.2 -3.1 27 7.6 SE 17 20 9 11 1016.8 1015.8 0.0
25/03:00am 16.6 10.4 -3.5 25 8.1 SE 20 24 11 13 1016.6 1015.7 0.0
25/02:30am 18.0 10.9 -4.0 22 8.9 SE 24 28 13 15 1016.4 1015.5 0.0
25/02:00am 18.8 12.4 -4.6 20 9.4 SE 20 24 11 13 1016.4 1015.5 0.0
25/01:30am 18.1 12.2 -5.2 20 9.2 SE 17 19 9 10 1016.4 1015.5 0.0
25/01:00am 16.8 11.2 -6.3 20 8.8 SE 15 17 8 9 1016.6 1015.7 0.0
25/12:30am 18.1 12.9 -5.9 19 9.4 SSE 13 17 7 9 1016.8 1015.8 0.0
25/12:00am 19.6 13.7 -5.3 18 10.0 SSE 17 20 9 11 1016.8 1015.8 0.0
 
Date/Time
WST
Temp
°C
App
Temp
°C
Dew
Point
°C
Rel
Hum
%
Delta-T
°C
Wind Press
QNH
hPa
Press
MSL
hPa
Rain since
9am
mm
Dir  Spd
km/h
Gust
km/h
Spd
kts
Gust
kts
24/11:30pm 19.1 14.3 -6.5 17 10.0 SE 11 13 6 7 1017.0 1016.0 0.0
24/11:00pm 19.2 14.7 -6.4 17 10.0 SE 9 11 5 6 1017.3 1016.3 0.0
24/10:30pm 22.7 16.8 -6.1 14 11.7 SSE 17 17 9 9 1017.5 1016.5 0.0
24/10:00pm 21.0 15.5 -5.7 16 10.8 SSE 15 15 8 8 1017.9 1016.9 0.0
24/09:30pm 19.5 14.6 -7.0 16 10.3 SSE 11 13 6 7 1017.9 1016.9 0.0
24/09:00pm 20.7 15.8 -6.8 15 10.8 SSE 11 13 6 7 1018.0 1017.0 0.0
24/08:30pm 20.5 16.0 -7.0 15 10.8 SE 9 13 5 7 1018.0 1017.0 0.0
24/08:00pm 23.1 18.3 -5.8 14 11.9 SSE 11 13 6 7 1017.8 1016.8 0.0
24/07:30pm 24.2 19.4 -5.9 13 12.5 SSE 11 13 6 7 1017.6 1016.6 0.0
24/07:00pm 24.6 19.7 -6.7 12 12.8 SSE 11 13 6 7 1017.5 1016.5 0.0
24/06:30pm 25.0 20.4 -7.5 11 13.2 SE 9 11 5 6 1017.1 1016.1 0.0
24/06:00pm 26.1 21.6 -6.6 11 13.6 ESE 9 11 5 6 1016.8 1015.8 0.0
24/05:30pm 27.9 22.9 -7.9 9 14.8 SE 11 15 6 8 1016.5 1015.6 0.0
24/05:00pm 29.4 23.8 -6.7 9 15.5 E 15 22 8 12 1016.1 1015.1 0.0
24/04:30pm 29.9 24.3 -6.4 9 15.7 E 15 22 8 12 1015.9 1014.9 0.0
24/04:00pm 30.2 24.5 -7.7 8 16.1 E 15 24 8 13 1015.8 1014.8 0.0
24/03:30pm 30.5 25.2 -7.4 8 16.2 ENE 13 24 7 13 1015.6 1014.6 0.0
24/03:00pm 30.2 24.9 -7.7 8 16.1 ESE 13 22 7 12 1015.7 1014.7 0.0
24/02:30pm 30.9 25.6 -7.1 8 16.4 SSE 13 28 7 15 1015.9 1014.9 0.0
24/02:00pm 30.1 24.8 -7.7 8 16.0 SE 13 24 7 13 1016.3 1015.4 0.0
24/01:30pm 29.7 24.3 -8.0 8 15.8 SE 13 22 7 12 1016.8 1015.8 0.0
24/01:00pm 29.9 24.2 -7.9 8 15.9 E 15 20 8 11 1017.3 1016.3 0.0
24/12:30pm 29.3 23.2 -8.3 8 15.7 ESE 17 28 9 15 1017.6 1016.6 0.0
24/12:00pm 29.0 23.1 -10.2 7 15.7 SE 15 24 8 13 1018.0 1017.0 0.0
24/11:30am 28.4 22.1 -10.7 7 15.5 ESE 17 24 9 13 1018.6 1017.6 0.0
24/11:00am 28.1 21.8 -10.9 7 15.3 SE 17 24 9 13 1019.1 1018.1 0.0
24/10:30am 28.1 22.5 -10.9 7 15.3 SE 13 20 7 11 1019.6 1018.7 0.0
24/10:00am 27.7 22.8 -11.2 7 15.1 E 9 17 5 9 1019.7 1018.8 0.0
24/09:30am 26.8 21.5 -11.8 7 14.7 ENE 11 17 6 9 1019.8 1018.9 0.0
24/09:00am 25.8 21.4 -10.9 8 14.1 ESE 7 11 4 6 1019.7 1018.8 0.0
24/08:30am 23.3 18.4 -11.3 9 12.8 ESE 9 15 5 8 1019.6 1018.7 0.0
24/08:00am 22.0 17.2 -11.0 10 12.1 SE 9 11 5 6 1019.4 1018.5 0.0
24/07:30am 19.0 14.7 -9.1 14 10.4 SE 7 9 4 5 1019.2 1018.2 0.0
24/07:00am 15.6 12.5 -10.1 16 8.9 CALM 0 0 0 0 1018.9 1017.9 0.0
24/06:30am 14.0 9.6 -9.9 18 8.2 SSE 7 9 4 5 1018.7 1017.7 0.0
24/06:00am 13.2 8.8 -9.9 19 7.8 SE 7 9 4 5 1018.3 1017.3 0.0
24/05:30am 13.2 8.4 -10.6 18 7.9 ESE 9 9 5 5 1018.0 1017.0 0.0
24/05:00am 13.7 9.3 -10.2 18 8.1 ESE 7 9 4 5 1017.7 1016.7 0.0
24/04:30am 13.4 10.3 -10.4 18 8.0 CALM 0 0 0 0 1017.5 1016.5 0.0
24/04:00am 13.6 10.6 -9.6 19 7.9 CALM 0 0 0 0 1017.5 1016.5 0.0
24/03:30am 13.8 9.6 -10.1 18 8.1 SE 6 6 3 3 1017.4 1016.4 0.0
24/03:00am 14.2 10.0 -10.5 17 8.3 SE 6 7 3 4 1017.5 1016.5 0.0
24/02:30am 14.1 9.7 -10.5 17 8.3 ESE 7 9 4 5 1017.6 1016.6 0.0
24/02:00am 14.1 9.2 -11.3 16 8.4 SSE 9 9 5 5 1017.6 1016.6 0.0
24/01:30am 16.6 11.3 -11.9 13 9.7 SSE 11 13 6 7 1017.7 1016.7 0.0
24/01:00am 16.1 10.9 -11.4 14 9.3 SE 11 13 6 7 1017.9 1016.9 0.0
24/12:30am 16.9 11.6 -11.7 13 9.8 SE 11 11 6 6 1018.2 1017.2 0.0
24/12:00am 19.1 14.6 -12.0 11 10.8 SE 7 9 4 5 1018.4 1017.4 0.0
 
Date/Time
WST
Temp
°C
App
Temp
°C
Dew
Point
°C
Rel
Hum
%
Delta-T
°C
Wind Press
QNH
hPa
Press
MSL
hPa
Rain since
9am
mm
Dir  Spd
km/h
Gust
km/h
Spd
kts
Gust
kts
23/11:30pm 19.5 15.0 -11.7 11 11.0 ESE 7 9 4 5 1018.3 1017.3 0.0
23/11:00pm 19.3 15.0 -11.9 11 10.9 ESE 6 7 3 4 1018.4 1017.4 0.0
23/10:30pm 20.2 15.7 -11.2 11 11.3 ESE 7 9 4 5 1018.5 1017.5 0.0
23/10:00pm 20.5 16.2 -10.9 11 11.4 ESE 6 9 3 5 1018.8 1017.8 0.0
23/09:30pm 20.7 16.3 -10.8 11 11.5 SE 7 7 4 4 1018.8 1017.8 0.0
23/09:00pm 20.5 16.1 -9.8 12 11.2 SE 7 7 4 4 1018.9 1017.9 0.0
23/08:30pm 21.0 15.8 -10.5 11 11.6 SE 11 13 6 7 1018.9 1017.9 0.0
23/08:00pm 21.2 16.1 -9.3 12 11.5 SE 11 13 6 7 1018.8 1017.8 0.0
23/07:30pm 20.7 16.0 -9.7 12 11.3 SE 9 11 5 6 1018.6 1017.6 0.0
23/07:00pm 22.8 17.7 -9.2 11 12.3 SSE 11 13 6 7 1018.2 1017.2 0.0
23/06:30pm 23.3 18.2 -10.0 10 12.7 SSE 11 11 6 6 1017.8 1016.8 0.0
23/06:00pm 24.7 19.9 -10.3 9 13.4 SE 9 11 5 6 1017.6 1016.6 0.0
23/05:30pm 26.7 21.2 -10.2 8 14.5 SSE 13 19 7 10 1017.4 1016.4 0.0
23/05:04pm 27.8 21.6 -9.4 8 15.0 SE 17 22 9 12 1017.1 1016.1 0.0
23/05:00pm 27.9 21.7 -9.4 8 15.0 SE 17 22 9 12 1017.1 1016.1 0.0
23/04:43pm 28.5 22.6 -10.6 7 15.5 SSE 15 20 8 11 1017.1 1016.1 0.0
23/04:30pm 28.6 23.8 -10.5 7 15.6 SE 9 19 5 10 1017.0 1016.0 0.0
23/04:00pm 28.5 22.6 -10.6 7 15.5 SE 15 24 8 13 1016.9 1015.9 0.0
23/03:30pm 28.6 23.0 -10.5 7 15.6 SSE 13 24 7 13 1016.9 1015.9 0.0
23/03:00pm 29.0 23.1 -10.2 7 15.7 S 15 20 8 11 1017.0 1016.0 0.0
23/02:30pm 28.5 22.6 -10.6 7 15.5 ESE 15 24 8 13 1017.1 1016.1 0.0
23/02:00pm 28.3 23.5 -10.7 7 15.4 ENE 9 20 5 11 1017.4 1016.4 0.0
23/01:30pm 28.4 22.4 -10.7 7 15.5 SE 15 26 8 14 1017.8 1016.8 0.0
23/01:00pm 28.1 22.9 -10.9 7 15.3 E 11 20 6 11 1018.2 1017.2 0.0
23/12:30pm 27.7 22.6 -9.5 8 14.9 SSE 11 20 6 11 1018.7 1017.7 0.0
23/12:00pm 26.7 21.5 -10.2 8 14.5 SE 11 19 6 10 1019.1 1018.1 0.0
23/11:30am 26.9 21.7 -10.1 8 14.6 E 11 20 6 11 1019.5 1018.6 0.0
23/11:00am 26.4 21.0 -9.0 9 14.1 ENE 13 19 7 10 1020.0 1019.1 0.0
23/10:30am 25.5 19.6 -9.7 9 13.8 ENE 15 20 8 11 1020.6 1019.6 0.0
23/10:00am 25.0 19.2 -8.7 10 13.3 E 15 22 8 12 1021.0 1020.0 0.0
23/09:30am 23.3 17.5 -8.8 11 12.5 E 15 20 8 11 1021.2 1020.2 0.0
23/09:00am 21.5 15.3 -9.1 12 11.6 E 17 22 9 12 1021.4 1020.4 0.0
23/08:30am 20.1 14.3 -9.1 13 10.9 ENE 15 19 8 10 1021.3 1020.3 0.0

Other formats

Comma delimited format used in spreadsheet applications
http://www.bom.gov.au/fwo/IDW60801/IDW60801.94319.axf

JavaScript Object Notation format (JSON) in row-major order
http://www.bom.gov.au/fwo/IDW60801/IDW60801.94319.json

Data quality

Most of these data are generated automatically and are frequently updated. Quality checks on data are not normally performed. It is possible for incorrect values to appear. Refer to information at About Latest Weather Observations and please check the disclaimer before using these data.